Time;durP1;ratioP1;P1;durP2;ratioP2;P2;SDS_P1;SDS_P2;PMS_P1;PMS_P2;Temp;Humidity;BMP_temperature;BMP_pressure;BME280_temperature;BME280_humidity;BME280_pressure;Samples;Min_cycle;Max_cycle;Signal;HPM_P1;HPM_P2
2021/09/22 00:00:46;;;;;;;2.72;2.05;;;;;;;7.65;73.48;99370.66;1769163;81;21067;-41
2021/09/22 00:03:12;;;;;;;2.50;1.80;;;;;;;7.67;73.12;99369.17;1766228;80;21014;-42
2021/09/22 00:05:40;;;;;;;1.82;1.70;;;;;;;7.65;73.22;99359.27;1755005;80;20950;-41
2021/09/22 00:08:09;;;;;;;1.98;1.55;;;;;;;7.63;73.31;99356.14;1763884;81;20930;-42
2021/09/22 00:10:37;;;;;;;1.92;1.70;;;;;;;7.61;73.53;99357.59;1763350;81;20950;-41
2021/09/22 00:13:03;;;;;;;2.77;1.30;;;;;;;7.61;73.53;99360.29;1765992;80;21117;-41
2021/09/22 00:15:31;;;;;;;1.80;1.70;;;;;;;7.68;73.55;99351.08;1779200;80;21590;-42
2021/09/22 00:17:57;;;;;;;2.25;1.85;;;;;;;7.79;73.53;99362.98;1779327;80;21019;-42
2021/09/22 00:20:25;;;;;;;2.08;1.65;;;;;;;7.79;73.18;99354.88;1774143;80;20938;-42
2021/09/22 00:22:55;;;;;;;2.70;2.00;;;;;;;7.77;73.15;99353.08;1767310;80;21048;-42
2021/09/22 00:25:23;;;;;;;3.17;1.55;;;;;;;7.74;73.15;99352.42;1772932;80;22343;-42
2021/09/22 00:27:49;;;;;;;1.87;1.60;;;;;;;7.74;73.07;99352.42;1767255;80;21517;-41
2021/09/22 00:30:16;;;;;;;2.22;1.70;;;;;;;7.76;73.03;99357.69;1773642;80;20918;-42
2021/09/22 00:32:47;;;;;;;2.37;1.65;;;;;;;7.81;73.08;99353.97;1766149;80;21027;-42
2021/09/22 00:35:14;;;;;;;2.12;1.70;;;;;;;7.81;72.93;99347.22;1707034;83;21003;-42
2021/09/22 00:37:40;;;;;;;2.27;1.70;;;;;;;7.78;72.48;99347.34;1760774;80;21221;-42
2021/09/22 00:40:09;;;;;;;2.10;1.50;;;;;;;7.72;72.51;99342.52;1773261;80;20965;-42
2021/09/22 00:42:35;;;;;;;2.05;1.67;;;;;;;7.70;72.66;99336.10;1773457;80;21562;-42
2021/09/22 00:45:08;;;;;;;3.17;1.27;;;;;;;7.73;72.61;99340.05;1747006;80;21012;-42
2021/09/22 00:47:35;;;;;;;2.10;1.60;;;;;;;7.70;72.61;99336.66;1744838;81;21005;-42
2021/09/22 00:50:05;;;;;;;1.30;1.20;;;;;;;7.64;72.86;99334.78;1734262;82;21956;-42
2021/09/22 00:52:32;;;;;;;1.62;1.50;;;;;;;7.59;73.26;99337.72;1714051;80;20970;-42
2021/09/22 00:54:59;;;;;;;1.32;1.22;;;;;;;7.53;73.55;99333.67;1767739;80;21013;-42
2021/09/22 00:57:26;;;;;;;1.77;1.30;;;;;;;7.56;73.57;99336.23;1758548;81;20933;-41
2021/09/22 00:59:54;;;;;;;1.70;1.60;;;;;;;7.58;73.66;99334.00;1758546;81;20961;-42
2021/09/22 01:02:21;;;;;;;2.55;1.40;;;;;;;7.53;73.81;99330.97;1758600;81;21748;-42
2021/09/22 01:04:47;;;;;;;2.55;1.85;;;;;;;7.50;73.94;99333.57;1783375;80;21072;-41
2021/09/22 01:07:14;;;;;;;2.25;1.65;;;;;;;7.48;73.89;99331.77;1769895;80;20958;-42
2021/09/22 01:09:42;;;;;;;1.90;1.52;;;;;;;7.49;73.73;99326.04;1756632;80;21037;-42
2021/09/22 01:12:09;;;;;;;1.50;1.30;;;;;;;7.54;73.73;99316.37;1756311;81;21048;-41
2021/09/22 01:14:36;;;;;;;2.75;1.70;;;;;;;7.57;73.49;99325.12;1720281;83;21140;-42
2021/09/22 01:17:04;;;;;;;1.72;1.62;;;;;;;7.57;73.29;99324.33;1720075;83;21245;-42
2021/09/22 01:19:32;;;;;;;1.85;1.55;;;;;;;7.57;73.00;99322.98;1703606;84;21034;-42
2021/09/22 01:22:01;;;;;;;2.33;1.80;;;;;;;7.56;73.00;99317.36;1730670;82;20972;-42
2021/09/22 01:24:30;;;;;;;1.70;1.52;;;;;;;7.55;73.23;99322.55;1748403;82;21036;-42
2021/09/22 01:26:59;;;;;;;1.50;1.40;;;;;;;7.56;73.32;99322.75;1745790;82;21557;-42
2021/09/22 01:29:26;;;;;;;1.87;1.35;;;;;;;7.54;73.44;99325.02;1749085;82;20989;-42
2021/09/22 01:31:55;;;;;;;4.08;1.70;;;;;;;7.52;73.27;99315.12;1749935;82;21056;-42
2021/09/22 01:34:21;;;;;;;1.67;1.57;;;;;;;7.56;73.45;99309.27;1750196;82;20985;-42
2021/09/22 01:36:50;;;;;;;2.65;1.98;;;;;;;7.61;73.17;99309.81;1745780;82;21087;-42
2021/09/22 01:39:17;;;;;;;2.35;1.85;;;;;;;7.56;73.00;99307.35;1714885;83;23157;-42
2021/09/22 01:41:46;;;;;;;3.17;1.82;;;;;;;7.51;73.27;99310.84;1719531;83;20982;-42
2021/09/22 01:44:13;;;;;;;3.65;2.27;;;;;;;7.50;73.52;99310.64;1708751;83;21072;-42
2021/09/22 01:46:41;;;;;;;2.00;1.80;;;;;;;7.52;73.38;99311.08;1718574;82;20957;-42
2021/09/22 01:49:08;;;;;;;2.00;1.70;;;;;;;7.54;73.38;99310.97;1763804;81;21104;-42
2021/09/22 01:51:35;;;;;;;3.60;2.08;;;;;;;7.58;73.34;99309.72;1763551;81;21124;-41
2021/09/22 01:54:06;;;;;;;2.72;1.95;;;;;;;7.56;73.13;99309.27;1762303;81;21525;-42
2021/09/22 01:56:34;;;;;;;2.10;1.90;;;;;;;7.53;73.23;99308.05;1753999;81;21118;-42
2021/09/22 01:59:03;;;;;;;3.22;1.82;;;;;;;7.52;73.22;99311.08;1769162;81;20962;-41
2021/09/22 02:01:31;;;;;;;3.15;1.90;;;;;;;7.56;73.24;99311.40;1766644;81;21041;-42
2021/09/22 02:04:01;;;;;;;;;;;;;;;7.58;73.00;99311.07;1769235;81;20958;-42
2021/09/22 02:06:34;;;;;;;2.62;1.82;;;;;;;7.55;73.16;99307.72;1760131;81;20154;-41
2021/09/22 02:09:01;;;;;;;2.55;1.90;;;;;;;7.44;73.54;99303.34;1720269;83;21460;-42
2021/09/22 02:11:33;;;;;;;2.20;1.90;;;;;;;7.50;73.36;99303.91;1717233;83;21507;-42
2021/09/22 02:14:01;;;;;;;2.02;1.82;;;;;;;7.56;73.28;99302.52;1731410;82;21112;-42
2021/09/22 02:16:29;;;;;;;3.50;2.08;;;;;;;7.61;73.20;99306.33;1716261;82;21223;-42
2021/09/22 02:19:05;;;;;;;2.37;2.17;;;;;;;7.62;73.08;99298.47;1705664;84;20978;-42
2021/09/22 02:21:33;;;;;;;3.55;1.80;;;;;;;7.58;72.98;99302.97;1773693;80;20997;-41
2021/09/22 02:24:03;;;;;;;3.95;2.10;;;;;;;7.56;72.85;99301.95;1709624;83;20999;-42
2021/09/22 02:26:31;;;;;;;2.65;1.70;;;;;;;7.55;72.84;99300.97;1780220;80;21488;-42
2021/09/22 02:28:58;;;;;;;3.67;2.30;;;;;;;7.52;72.86;99302.98;1773543;80;21100;-42
2021/09/22 02:31:25;;;;;;;2.65;2.12;;;;;;;7.49;72.88;99299.63;1712536;83;21019;-42
2021/09/22 02:33:56;;;;;;;5.65;2.40;;;;;;;7.48;73.09;99300.75;1761295;80;20933;-42
2021/09/22 02:36:23;;;;;;;2.80;2.05;;;;;;;7.47;72.99;99305.34;1778921;80;21613;-42
2021/09/22 02:38:58;;;;;;;3.65;2.00;;;;;;;7.46;73.17;99307.03;1779910;80;21068;-42
2021/09/22 02:41:26;;;;;;;4.50;2.67;;;;;;;7.47;73.33;99306.70;1781980;80;21781;-42
2021/09/22 02:43:53;;;;;;;2.95;2.65;;;;;;;7.51;73.14;99307.59;1775938;80;21023;-42
2021/09/22 02:46:22;;;;;;;3.55;2.45;;;;;;;7.49;73.34;99308.50;1782043;80;21045;-41
2021/09/22 02:49:02;;;;;;;4.12;2.80;;;;;;;7.46;73.51;99300.28;1751131;82;21000;-42
2021/09/22 02:51:31;;;;;;;3.67;2.72;;;;;;;7.43;73.77;99307.16;1751429;80;21545;-42
2021/09/22 02:53:59;;;;;;;3.02;2.50;;;;;;;7.46;73.63;99307.03;1750955;82;21005;-41
2021/09/22 02:56:26;;;;;;;3.35;2.83;;;;;;;7.47;73.91;99303.21;1778885;80;21444;-42
2021/09/22 02:58:53;;;;;;;3.62;2.30;;;;;;;7.49;73.99;99300.97;1780161;80;20956;-42
2021/09/22 03:01:19;;;;;;;4.20;2.50;;;;;;;7.53;74.10;99300.52;1782083;80;22055;-42
2021/09/22 03:03:48;;;;;;;4.10;2.67;;;;;;;7.55;73.93;99302.31;1775542;80;21021;-41
2021/09/22 03:06:14;;;;;;;3.37;2.47;;;;;;;7.58;74.02;99308.37;1775551;80;21161;-41
2021/09/22 03:08:42;;;;;;;3.40;2.67;;;;;;;7.60;73.96;99300.14;1738197;82;21006;-42
2021/09/22 03:11:11;;;;;;;3.42;2.80;;;;;;;7.59;74.20;99305.91;1721521;83;20937;-42
2021/09/22 03:13:40;;;;;;;4.15;2.58;;;;;;;7.56;74.27;99297.91;1740364;82;20922;-42
2021/09/22 03:16:07;;;;;;;5.62;2.98;;;;;;;7.51;74.12;99301.41;1729383;82;21059;-42
2021/09/22 03:18:34;;;;;;;3.52;2.30;;;;;;;7.47;74.01;99297.26;1775144;80;21452;-42
2021/09/22 03:21:01;;;;;;;2.75;2.55;;;;;;;7.47;74.07;99297.81;1781354;80;21007;-42
2021/09/22 03:23:28;;;;;;;4.40;2.80;;;;;;;7.52;74.13;99294.33;1781846;80;20990;-41
2021/09/22 03:25:59;;;;;;;3.17;2.87;;;;;;;7.53;74.19;99295.12;1782201;80;21519;-42
2021/09/22 03:28:26;;;;;;;3.92;3.05;;;;;;;7.50;74.03;99297.16;1764187;80;21051;-41
2021/09/22 03:30:54;;;;;;;3.17;2.50;;;;;;;7.48;74.06;99300.19;1762383;81;21161;-42
2021/09/22 03:33:20;;;;;;;3.25;2.70;;;;;;;7.50;74.16;99299.85;1776095;80;21013;-42
2021/09/22 03:35:47;;;;;;;2.67;2.37;;;;;;;7.51;74.27;99294.09;1750986;82;21032;-42
2021/09/22 03:38:17;;;;;;;3.30;2.75;;;;;;;7.47;74.46;99291.08;1751570;80;20962;-41
2021/09/22 03:40:44;;;;;;;2.70;2.15;;;;;;;7.45;74.72;99297.39;1750438;82;21037;-41
2021/09/22 03:43:11;;;;;;;3.87;2.90;;;;;;;7.41;74.77;99291.87;1751068;82;21105;-41
2021/09/22 03:45:38;;;;;;;3.20;2.90;;;;;;;7.38;74.88;99293.34;1774973;80;21021;-41
2021/09/22 03:48:05;;;;;;;3.37;2.58;;;;;;;7.42;74.95;99298.28;1781533;80;21515;-41
2021/09/22 03:50:33;;;;;;;3.08;2.77;;;;;;;7.46;74.81;99297.59;1781888;80;21578;-41
2021/09/22 03:53:04;;;;;;;4.00;3.00;;;;;;;7.52;74.82;99300.28;1781956;80;21001;-42
2021/09/22 03:55:30;;;;;;;3.58;3.08;;;;;;;7.52;74.55;99298.94;1761717;80;21177;-41
2021/09/22 03:57:57;;;;;;;3.12;2.77;;;;;;;7.51;74.43;99297.36;1772061;80;20984;-41
2021/09/22 04:00:24;;;;;;;3.10;2.75;;;;;;;7.51;74.56;99291.96;1781867;80;21009;-42
2021/09/22 04:02:50;;;;;;;3.72;2.80;;;;;;;7.59;74.41;99285.67;1779136;80;20973;-42
2021/09/22 04:05:17;;;;;;;4.95;3.10;;;;;;;7.62;74.19;99283.63;1763309;80;21002;-41
2021/09/22 04:07:45;;;;;;;6.30;3.30;;;;;;;7.63;74.16;99286.55;1708626;83;21989;-42
2021/09/22 04:10:12;;;;;;;5.80;3.62;;;;;;;7.62;74.16;99284.98;1761346;80;21544;-41
2021/09/22 04:12:39;;;;;;;3.52;2.87;;;;;;;7.60;74.28;99285.89;1767788;80;20969;-41
2021/09/22 04:15:09;;;;;;;5.00;3.08;;;;;;;7.59;74.28;99285.11;1749050;80;21544;-41
2021/09/22 04:17:36;;;;;;;3.55;2.98;;;;;;;7.59;74.23;99288.37;1758920;80;21037;-42
2021/09/22 04:20:04;;;;;;;7.05;3.33;;;;;;;7.61;74.28;99289.58;1768411;80;21804;-41
2021/09/22 04:22:32;;;;;;;3.20;2.90;;;;;;;7.63;74.29;99289.25;1746989;80;21012;-41
2021/09/22 04:25:00;;;;;;;3.62;2.80;;;;;;;7.59;74.25;99289.72;1748638;81;21081;-41
2021/09/22 04:27:26;;;;;;;3.80;3.20;;;;;;;7.56;74.42;99290.38;1761869;80;20958;-41
2021/09/22 04:29:59;;;;;;;4.90;3.22;;;;;;;7.55;74.72;99287.48;1771275;80;21345;-41
2021/09/22 04:32:44;;;;;;;5.15;3.10;;;;;;;7.55;74.27;99289.59;1773254;80;21203;-41
2021/09/22 04:35:24;;;;;;;;;;;;;;;7.55;74.19;99294.98;1699103;80;20989;-41
2021/09/22 04:38:09;;;;;;;3.42;3.00;;;;;;;7.53;73.91;99285.67;1764485;80;20099;-42
2021/09/22 04:40:55;;;;;;;3.15;2.67;;;;;;;7.36;74.59;99289.40;1747339;82;21529;-41
2021/09/22 04:43:41;;;;;;;3.62;3.10;;;;;;;7.32;74.78;99290.65;1769144;80;20926;-42
2021/09/22 04:46:27;;;;;;;4.70;3.17;;;;;;;7.32;74.71;99296.60;1696891;84;21187;-41
2021/09/22 04:49:12;;;;;;;3.20;2.90;;;;;;;7.33;74.75;99296.83;1773006;80;21093;-42
2021/09/22 04:51:56;;;;;;;4.55;3.08;;;;;;;7.30;74.67;99291.57;1758479;80;21566;-42
2021/09/22 04:54:42;;;;;;;3.45;3.00;;;;;;;7.27;74.93;99293.58;1768804;80;21516;-42
2021/09/22 04:57:28;;;;;;;3.83;2.95;;;;;;;7.28;74.90;99293.02;1750881;80;21020;-42
2021/09/22 05:00:15;;;;;;;3.62;2.95;;;;;;;7.32;74.93;99296.04;1762990;81;21930;-41
2021/09/22 05:03:03;;;;;;;6.60;2.70;;;;;;;7.38;74.62;99294.69;1755838;80;20961;-41
2021/09/22 05:05:48;;;;;;;5.37;3.37;;;;;;;7.38;74.64;99293.34;1750230;80;21011;-41
2021/09/22 05:08:20;;;;;;;3.72;3.33;;;;;;;7.38;74.79;99290.65;1725028;80;21090;-42
2021/09/22 05:11:05;;;;;;;3.83;3.10;;;;;;;7.42;74.68;99295.58;1781869;80;21035;-41
2021/09/22 05:13:52;;;;;;;4.15;3.10;;;;;;;7.52;74.53;99297.02;1777108;80;20968;-41
2021/09/22 05:16:33;;;;;;;5.58;2.80;;;;;;;7.54;74.17;99289.95;1717416;80;21015;-41
2021/09/22 05:19:19;;;;;;;3.87;3.22;;;;;;;7.50;74.06;99294.46;1762312;80;20969;-41
2021/09/22 05:22:06;;;;;;;3.90;3.00;;;;;;;7.42;74.16;99291.53;1781840;80;20965;-41
2021/09/22 05:24:52;;;;;;;3.52;2.55;;;;;;;7.42;74.34;99294.23;1754313;80;20986;-41
2021/09/22 05:27:39;;;;;;;3.85;2.98;;;;;;;7.48;74.18;99294.00;1772660;80;20930;-41
2021/09/22 05:30:24;;;;;;;3.98;2.87;;;;;;;7.54;74.37;99288.60;1770103;80;21008;-41
2021/09/22 05:33:10;;;;;;;3.15;2.85;;;;;;;7.60;74.36;99293.40;1766802;80;20988;-42
2021/09/22 05:35:55;;;;;;;3.47;2.87;;;;;;;7.61;73.84;99290.14;1781917;80;21475;-41
2021/09/22 05:38:40;;;;;;;3.77;2.60;;;;;;;7.59;73.72;99291.06;1772348;80;21044;-42
2021/09/22 05:41:25;;;;;;;3.42;2.60;;;;;;;7.64;73.84;99295.66;1766717;80;21481;-42
2021/09/22 05:44:10;;;;;;;3.22;2.50;;;;;;;7.68;73.80;99289.02;1769659;80;21004;-42
2021/09/22 05:46:55;;;;;;;4.33;2.92;;;;;;;7.68;73.25;99290.36;1750112;82;21835;-41
2021/09/22 05:49:42;;;;;;;4.05;2.77;;;;;;;7.61;73.48;99295.54;1765007;80;21080;-42
2021/09/22 05:52:26;;;;;;;3.25;2.42;;;;;;;7.60;73.47;99292.64;1774994;80;21020;-42
2021/09/22 05:55:11;;;;;;;3.37;2.58;;;;;;;7.68;72.85;99295.77;1771597;80;21934;-41
2021/09/22 05:57:56;;;;;;;5.45;2.37;;;;;;;7.71;72.84;99288.32;1766443;80;20993;-41
2021/09/22 06:00:42;;;;;;;4.22;2.70;;;;;;;7.67;73.15;99295.53;1769530;80;21038;-41
2021/09/22 06:03:28;;;;;;;3.08;2.72;;;;;;;7.64;73.03;99292.97;1767627;80;20961;-41
2021/09/22 06:05:58;;;;;;;3.52;2.30;;;;;;;7.65;72.87;99289.70;1732111;80;20976;-42
2021/09/22 06:08:44;;;;;;;6.40;2.60;;;;;;;7.74;72.98;99297.10;1776155;80;20937;-41
2021/09/22 06:11:14;;;;;;;3.37;2.60;;;;;;;7.78;72.64;99294.73;1776246;80;21041;-41
2021/09/22 06:14:00;;;;;;;7.17;3.00;;;;;;;7.81;72.64;99302.69;1774251;80;21064;-41
2021/09/22 06:16:28;;;;;;;3.17;2.15;;;;;;;7.79;72.40;99303.61;1716509;83;20961;-41
2021/09/22 06:18:58;;;;;;;4.45;2.27;;;;;;;7.85;72.50;99296.82;1752503;81;20965;-41
2021/09/22 06:21:25;;;;;;;2.95;2.42;;;;;;;7.96;72.49;99304.66;1717389;83;21102;-41
2021/09/22 06:23:53;;;;;;;4.15;2.70;;;;;;;8.02;71.67;99299.25;1717995;82;20988;-42
2021/09/22 06:26:22;;;;;;;3.00;2.45;;;;;;;8.03;71.72;99300.04;1784147;80;21024;-41
2021/09/22 06:28:51;;;;;;;3.15;2.75;;;;;;;8.04;71.51;99301.02;1784217;80;21527;-41
2021/09/22 06:31:17;;;;;;;3.60;2.85;;;;;;;8.04;71.53;99296.98;1774478;80;21667;-42
2021/09/22 06:33:46;;;;;;;5.60;3.10;;;;;;;8.07;71.23;99295.52;1757458;80;21138;-42
2021/09/22 06:36:15;;;;;;;3.80;3.25;;;;;;;8.10;71.20;99306.41;1766921;80;20973;-41
2021/09/22 06:38:44;;;;;;;3.30;3.00;;;;;;;8.09;71.08;99302.69;1759321;80;21029;-41
2021/09/22 06:41:10;;;;;;;4.42;2.75;;;;;;;8.08;71.47;99304.64;1763276;80;21098;-41
2021/09/22 06:43:39;;;;;;;4.20;3.10;;;;;;;8.10;71.56;99302.92;1776732;80;21005;-42
2021/09/22 06:46:07;;;;;;;4.87;2.80;;;;;;;8.12;71.38;99300.67;1753849;80;21037;-41
2021/09/22 06:48:36;;;;;;;3.92;2.50;;;;;;;8.15;71.38;99300.77;1713546;83;20994;-41
2021/09/22 06:51:02;;;;;;;3.45;2.80;;;;;;;8.23;71.28;99301.16;1721547;82;21041;-41
2021/09/22 06:53:29;;;;;;;2.87;2.60;;;;;;;8.31;71.20;99305.45;1734264;82;21035;-42
2021/09/22 06:55:56;;;;;;;5.87;2.85;;;;;;;8.36;71.03;99294.40;1722277;82;21005;-41
2021/09/22 06:58:23;;;;;;;3.70;2.80;;;;;;;8.38;70.90;99298.88;1718214;82;21135;-42
2021/09/22 07:00:50;;;;;;;3.55;2.60;;;;;;;8.36;70.95;99295.75;1754032;80;21039;-42
2021/09/22 07:03:17;;;;;;;4.67;2.30;;;;;;;8.38;70.90;99294.26;1784187;80;21037;-42
2021/09/22 07:05:44;;;;;;;6.08;2.60;;;;;;;8.47;70.79;99298.17;1781573;80;21530;-42
2021/09/22 07:08:11;;;;;;;3.72;2.60;;;;;;;8.54;70.39;99301.05;1779951;80;21045;-42
2021/09/22 07:10:39;;;;;;;2.92;2.55;;;;;;;8.51;70.46;99300.40;1748678;82;21090;-42
2021/09/22 07:13:07;;;;;;;4.80;2.60;;;;;;;8.52;70.61;99303.33;1748662;82;21016;-42
2021/09/22 07:15:35;;;;;;;3.05;2.70;;;;;;;8.53;70.69;99300.25;1748681;82;21570;-42
2021/09/22 07:18:02;;;;;;;3.87;2.40;;;;;;;8.55;70.64;99302.05;1748761;82;21088;-42
2021/09/22 07:20:28;;;;;;;2.05;1.82;;;;;;;8.58;70.18;99301.35;1755664;80;21045;-42
2021/09/22 07:22:55;;;;;;;3.42;2.00;;;;;;;8.65;69.72;99300.76;1772351;80;21562;-41
2021/09/22 07:25:22;;;;;;;5.53;2.40;;;;;;;8.64;68.50;99299.18;1778722;80;21008;-42
2021/09/22 07:27:48;;;;;;;2.17;1.98;;;;;;;8.57;68.76;99300.34;1778987;80;21535;-42
2021/09/22 07:30:15;;;;;;;3.92;2.30;;;;;;;8.53;69.11;99297.55;1779447;80;21032;-41
2021/09/22 07:32:45;;;;;;;3.00;2.22;;;;;;;8.51;69.46;99299.05;1765172;80;21555;-42
2021/09/22 07:35:12;;;;;;;2.30;2.10;;;;;;;8.53;69.62;99300.81;1760874;80;21762;-42
2021/09/22 07:37:40;;;;;;;4.90;2.42;;;;;;;8.61;69.98;99297.19;1755843;80;21531;-41
2021/09/22 07:40:09;;;;;;;3.37;2.27;;;;;;;8.80;69.65;99301.34;1761512;80;21532;-42
2021/09/22 07:42:36;;;;;;;2.87;2.25;;;;;;;8.91;68.61;99295.61;1773767;80;20950;-41
2021/09/22 07:45:06;;;;;;;2.42;1.98;;;;;;;8.95;68.52;99295.71;1763372;81;20993;-42
2021/09/22 07:47:32;;;;;;;3.15;2.02;;;;;;;8.98;68.06;99301.20;1763908;81;21121;-42
2021/09/22 07:50:02;;;;;;;2.35;1.95;;;;;;;8.99;68.02;99301.42;1767764;80;21072;-42
2021/09/22 07:52:28;;;;;;;2.47;1.87;;;;;;;8.97;67.66;99298.27;1769174;80;20994;-42
2021/09/22 07:54:56;;;;;;;2.30;1.50;;;;;;;8.94;67.25;99294.92;1768398;80;21015;-42
2021/09/22 07:57:23;;;;;;;1.80;1.50;;;;;;;8.95;66.31;99296.50;1760667;80;21085;-42
2021/09/22 07:59:50;;;;;;;2.75;1.72;;;;;;;8.90;66.75;99291.36;1758945;80;21139;-42
2021/09/22 08:02:18;;;;;;;2.00;1.77;;;;;;;8.84;66.98;99296.02;1759289;80;20981;-41
2021/09/22 08:04:45;;;;;;;2.95;1.95;;;;;;;8.82;66.92;99292.86;1754619;80;21053;-41
2021/09/22 08:07:12;;;;;;;2.65;2.02;;;;;;;8.82;67.15;99304.45;1758108;80;21091;-42
2021/09/22 08:09:39;;;;;;;1.65;1.55;;;;;;;8.84;67.60;99303.55;1750504;79;21039;-42
2021/09/22 08:12:06;;;;;;;3.17;1.60;;;;;;;8.92;67.47;99302.59;1758181;80;21838;-42
2021/09/22 08:14:35;;;;;;;2.52;1.50;;;;;;;8.94;66.21;99303.03;1776302;80;21035;-42
2021/09/22 08:17:01;;;;;;;2.02;1.50;;;;;;;8.91;66.20;99298.30;1747565;80;21041;-42
2021/09/22 08:19:28;;;;;;;2.35;1.50;;;;;;;8.87;66.40;99296.66;1764606;80;21541;-42
2021/09/22 08:21:55;;;;;;;2.25;1.55;;;;;;;8.85;66.36;99297.59;1756474;79;21080;-41
2021/09/22 08:24:23;;;;;;;1.90;1.47;;;;;;;8.82;66.28;99297.70;1760526;79;21139;-42
2021/09/22 08:26:52;;;;;;;3.00;1.60;;;;;;;8.82;66.66;99294.21;1755435;79;21274;-42
2021/09/22 08:29:20;;;;;;;2.95;1.47;;;;;;;8.83;66.58;99293.88;1764017;80;20981;-42
2021/09/22 08:31:48;;;;;;;3.50;1.50;;;;;;;8.90;66.91;99296.77;1748031;80;21004;-41
2021/09/22 08:34:15;;;;;;;2.25;1.45;;;;;;;9.03;66.67;99295.52;1748029;82;21022;-43
2021/09/22 08:36:44;;;;;;;1.42;1.30;;;;;;;9.09;66.82;99302.25;1750255;80;21151;-41
2021/09/22 08:39:15;;;;;;;1.90;1.40;;;;;;;9.21;66.11;99297.28;1748299;81;21013;-41
2021/09/22 08:41:42;;;;;;;2.60;1.32;;;;;;;9.21;66.11;99297.28;1754654;80;21392;-41
2021/09/22 08:44:11;;;;;;;1.77;1.50;;;;;;;9.22;65.53;99292.09;1766430;79;21080;-41
2021/09/22 08:46:44;;;;;;;2.08;1.32;;;;;;;9.24;65.15;99298.52;1751243;80;22018;-41
2021/09/22 08:49:06;;;;;;;2.72;1.50;;;;;;;9.22;64.69;99295.36;1747742;80;21533;-41
2021/09/22 08:51:36;;;;;;;2.33;1.50;;;;;;;9.17;65.28;99304.53;1753361;79;20925;-41
2021/09/22 08:54:03;;;;;;;1.90;1.55;;;;;;;9.21;65.49;99301.34;1751013;82;21032;-41
2021/09/22 08:56:29;;;;;;;2.45;1.70;;;;;;;9.26;65.58;99301.64;1752154;80;21621;-41
2021/09/22 08:58:56;;;;;;;3.25;1.85;;;;;;;9.27;65.77;99296.45;1748585;80;21357;-42
2021/09/22 09:01:25;;;;;;;4.15;1.50;;;;;;;9.25;65.34;99290.03;1748452;82;21121;-41
2021/09/22 09:03:52;;;;;;;1.75;1.47;;;;;;;9.21;65.64;99294.58;1755847;80;21514;-41
2021/09/22 09:06:34;;;;;;;2.35;1.70;;;;;;;8.87;66.05;99240.67;1748397;80;20985;-41
2021/09/22 09:09:00;;;;;;;1.70;1.60;;;;;;;9.21;66.01;99287.03;1749566;80;21000;-41
2021/09/22 09:11:31;;;;;;;2.08;1.22;;;;;;;9.24;65.32;99290.40;1731068;80;21053;-41
2021/09/22 09:14:02;;;;;;;1.65;1.20;;;;;;;9.29;64.96;99286.08;1741396;80;21695;-41
2021/09/22 09:16:45;;;;;;;1.47;1.37;;;;;;;9.38;64.73;99288.02;1768845;79;21522;-41
2021/09/22 09:20:57;;;;;;;1.55;1.45;;;;;;;9.50;64.61;99280.55;1778497;79;22649;-41
2021/09/22 09:23:24;;;;;;;1.98;1.50;;;;;;;9.44;64.59;99285.25;1780728;80;21002;-41
2021/09/22 09:26:02;;;;;;;1.82;1.62;;;;;;;9.47;64.89;99283.97;1698538;83;21637;-41
2021/09/22 09:28:37;;;;;;;1.57;1.40;;;;;;;9.46;64.30;99287.02;1710183;83;21012;-41
2021/09/22 09:31:10;;;;;;;2.30;1.67;;;;;;;9.37;64.48;99286.44;1722851;83;20968;-41
2021/09/22 09:33:53;;;;;;;1.30;1.20;;;;;;;9.33;64.54;99287.72;1719518;83;21562;-41
2021/09/22 09:36:30;;;;;;;2.15;1.30;;;;;;;9.34;63.44;99283.09;1712348;81;21014;-41
2021/09/22 09:39:03;;;;;;;1.80;1.57;;;;;;;9.30;63.56;99284.34;1723433;83;21136;-41
2021/09/22 09:41:42;;;;;;;1.60;1.20;;;;;;;9.27;64.25;99278.86;1704961;83;20904;-41
2021/09/22 09:44:11;;;;;;;1.87;1.30;;;;;;;9.27;64.37;99276.95;1699282;82;21495;-41
2021/09/22 09:46:38;;;;;;;1.62;1.42;;;;;;;9.32;64.27;99282.66;1709236;84;21041;-41
2021/09/22 09:49:19;;;;;;;1.27;1.17;;;;;;;9.31;64.11;99279.16;1706819;83;21657;-41
2021/09/22 09:51:53;;;;;;;2.00;1.12;;;;;;;9.30;63.88;99284.34;1711760;83;22003;-41
2021/09/22 09:54:28;;;;;;;2.58;1.50;;;;;;;9.26;64.27;99285.41;1732212;82;21060;-42
2021/09/22 09:56:56;;;;;;;1.82;1.42;;;;;;;9.28;64.33;99283.14;1711043;83;21067;-42
2021/09/22 09:59:25;;;;;;;2.02;1.77;;;;;;;9.32;64.39;99276.67;1723092;83;21068;-42
2021/09/22 10:01:54;;;;;;;2.95;1.75;;;;;;;9.38;64.40;99281.25;1697314;84;21520;-42
2021/09/22 10:04:23;;;;;;;2.83;1.57;;;;;;;9.38;63.74;99280.69;1713862;83;21119;-42
2021/09/22 10:06:51;;;;;;;2.30;1.72;;;;;;;9.37;63.84;99277.76;1712810;83;20953;-42
2021/09/22 10:09:18;;;;;;;1.45;1.30;;;;;;;9.34;63.81;99283.09;1709100;83;21028;-43
2021/09/22 10:11:47;;;;;;;1.87;1.50;;;;;;;9.32;64.12;99282.66;1713381;82;20982;-42
2021/09/22 10:14:16;;;;;;;4.42;2.17;;;;;;;9.29;64.08;99278.75;1715350;83;21080;-42
2021/09/22 10:16:42;;;;;;;3.77;1.92;;;;;;;9.23;64.09;99282.06;1715357;83;21126;-42
2021/09/22 10:19:10;;;;;;;2.25;1.62;;;;;;;9.23;64.50;99284.77;1714494;83;20992;-43
2021/09/22 10:21:38;;;;;;;3.25;2.20;;;;;;;9.26;64.48;99286.76;1714997;82;21002;-42
2021/09/22 10:24:11;;;;;;;2.22;1.77;;;;;;;9.24;64.49;99287.70;1688496;83;21514;-42
2021/09/22 10:26:39;;;;;;;2.00;1.75;;;;;;;9.21;64.44;99285.67;1750752;81;21507;-42
2021/09/22 10:29:27;;;;;;;4.78;1.90;;;;;;;9.18;64.57;99289.88;1715292;83;21144;-42
2021/09/22 10:31:57;;;;;;;2.60;2.02;;;;;;;9.14;64.95;99291.16;1746272;80;21012;-42
2021/09/22 10:34:29;;;;;;;4.30;1.90;;;;;;;9.16;65.42;99286.73;1751044;81;21527;-42
2021/09/22 10:36:57;;;;;;;2.12;1.90;;;;;;;9.22;64.74;99294.02;1754492;81;20989;-42
2021/09/22 10:39:36;;;;;;;1.90;1.50;;;;;;;9.26;65.17;99282.70;1769728;80;21520;-42
2021/09/22 10:42:23;;;;;;;3.15;1.55;;;;;;;9.39;65.05;99290.94;1745770;82;21776;-42
2021/09/22 10:44:50;;;;;;;2.00;1.47;;;;;;;9.44;64.41;99279.25;1744082;82;20964;-42
2021/09/22 10:47:30;;;;;;;2.92;1.80;;;;;;;9.48;64.65;99286.90;1744999;82;20945;-42
2021/09/22 10:49:57;;;;;;;1.80;1.60;;;;;;;9.52;64.11;99278.85;1745282;82;20981;-42
2021/09/22 10:52:37;;;;;;;1.75;1.40;;;;;;;9.52;63.82;99285.05;1777663;80;21037;-42
2021/09/22 10:55:17;;;;;;;1.75;1.40;;;;;;;9.49;62.86;99280.89;1750765;81;21019;-43
2021/09/22 10:57:47;;;;;;;;;;;;;;;9.43;63.31;99284.47;1753828;80;21059;-42
2021/09/22 11:00:19;;;;;;;3.98;1.40;;;;;;;9.41;63.50;99285.95;1748376;80;20548;-42
2021/09/22 11:02:48;;;;;;;1.32;1.22;;;;;;;9.36;63.66;99278.09;1753337;80;20969;-42
2021/09/22 11:05:30;;;;;;;1.60;1.50;;;;;;;9.42;63.36;99279.41;1749629;82;21065;-42
2021/09/22 11:08:03;;;;;;;4.70;1.75;;;;;;;9.51;63.90;99286.75;1707472;83;21156;-42
2021/09/22 11:10:47;;;;;;;2.20;2.00;;;;;;;9.59;64.24;99281.12;1777695;80;21004;-42
2021/09/22 11:13:28;;;;;;;1.98;1.70;;;;;;;9.69;63.63;99283.84;1761110;80;21040;-42
2021/09/22 11:16:10;;;;;;;2.00;1.75;;;;;;;9.73;63.32;99281.23;1764614;80;21008;-42
2021/09/22 11:18:42;;;;;;;1.62;1.30;;;;;;;9.75;63.29;99278.94;1746582;80;21021;-45
2021/09/22 11:21:08;;;;;;;1.70;1.60;;;;;;;9.77;63.15;99284.23;1684508;83;21105;-42
2021/09/22 11:23:37;;;;;;;3.87;1.50;;;;;;;9.75;62.87;99285.14;1701494;83;21508;-42
2021/09/22 11:26:08;;;;;;;1.80;1.60;;;;;;;9.72;62.93;99287.22;1693430;83;21039;-42
2021/09/22 11:28:36;;;;;;;1.80;1.67;;;;;;;9.71;62.68;99278.88;1740692;80;21282;-42
2021/09/22 11:31:03;;;;;;;2.87;1.70;;;;;;;9.73;62.60;99275.82;1739678;82;20986;-42
2021/09/22 11:33:30;;;;;;;2.50;1.70;;;;;;;9.76;62.80;99273.17;1755363;80;21138;-42
2021/09/22 11:36:08;;;;;;;2.65;1.62;;;;;;;9.75;62.72;99276.23;1695317;83;21554;-42
2021/09/22 11:38:37;;;;;;;2.60;1.87;;;;;;;9.74;62.81;99276.80;1745937;80;20960;-42
2021/09/22 11:41:04;;;;;;;3.05;1.37;;;;;;;9.72;62.95;99276.39;1753094;80;20926;-42
2021/09/22 11:43:33;;;;;;;2.62;1.47;;;;;;;9.68;63.02;99280.95;1731973;81;20992;-42
2021/09/22 11:46:02;;;;;;;3.12;2.00;;;;;;;9.64;63.47;99284.69;1752112;80;21633;-42
2021/09/22 11:48:37;;;;;;;3.00;1.50;;;;;;;9.60;63.94;99275.15;1750042;80;21039;-42
2021/09/22 11:51:07;;;;;;;1.60;1.50;;;;;;;9.62;64.14;99281.00;1749469;80;21005;-42
2021/09/22 11:53:37;;;;;;;4.30;1.90;;;;;;;9.62;63.96;99282.92;1763360;80;21004;-42
2021/09/22 11:56:04;;;;;;;6.70;4.05;;;;;;;9.63;64.18;99273.11;1765694;80;20898;-42
2021/09/22 11:58:34;;;;;;;5.28;3.45;;;;;;;9.71;64.21;99274.81;1782161;80;21563;-42
2021/09/22 12:01:05;;;;;;;3.87;2.80;;;;;;;9.73;64.43;99265.75;1782280;80;20957;-42